This is the latest recevied weather packets stored in our database for station/object K4ZZR. If no packets are shown the sender has not sent any weather packets the latest 10 day(s).
| Time | Temp. | Humidity | Pressure | Rain* | Wind** | Luminosity | Snow |
|---|---|---|---|---|---|---|---|
| 1777783143 | 23.89° C | 95% | 1013.3 hPa | 0.51 mm | - | 0 W/m² | - |
| 1777782839 | 23.89° C | 95% | 1013 hPa | 0 mm | - | 0 W/m² | - |
| 1777782535 | 23.89° C | 93% | 1012.9 hPa | 0.51 mm | - | 0 W/m² | - |
| 1777782232 | 23.89° C | 93% | 1012.6 hPa | 0.51 mm | - | 0 W/m² | - |
| 1777781928 | 23.89° C | 92% | 1012.3 hPa | 0 mm | - | 0 W/m² | - |
| 1777781625 | 23.89° C | 92% | 1013.1 hPa | 0 mm | - | 0 W/m² | - |
| 1777748307 | 32.78° C | 54% | 1009.7 hPa | 0 mm | - | 269 W/m² | - |
| 1777746484 | 32.78° C | 55% | 1010.1 hPa | 0 mm | - | 788 W/m² | - |
| 1777744664 | 32.78° C | 58% | 1010.1 hPa | 0 mm | - | 931 W/m² | - |
| 1777743450 | 31.67° C | 60% | 1010.3 hPa | 0 mm | - | 1049 W/m² | - |
| 1777741935 | 31.67° C | 60% | 1010.5 hPa | 0 mm | - | 1017 W/m² | - |
| 1777741631 | 32.22° C | 62% | 1010.6 hPa | 0 mm | - | 990 W/m² | - |
| 1777741024 | 31.67° C | 63% | 1010.7 hPa | 0 mm | - | 984 W/m² | - |
| 1777739810 | 31.11° C | 64% | 1011 hPa | 0 mm | - | 907 W/m² | - |
| 1777739508 | 31.11° C | 63% | 1010.8 hPa | 0 mm | - | 342 W/m² | - |
| 1777739204 | 31.11° C | 65% | 1011 hPa | 0 mm | - | 1031 W/m² | - |
| 1777738901 | 31.11° C | 64% | 1011.1 hPa | 0 mm | - | 782 W/m² | - |
| 1777738599 | 31.11° C | 64% | 1010.9 hPa | 0 mm | - | 329 W/m² | - |
| 1777738295 | 31.11° C | 63% | 1010.8 hPa | 0 mm | - | 483 W/m² | - |
| 1777737993 | 31.11° C | 65% | 1010.9 hPa | 0 mm | - | 416 W/m² | - |
| 1777736154 | 30° C | 70% | 1011.1 hPa | 0 mm | - | 381 W/m² | - |
| 1777735851 | 30° C | 69% | 1011 hPa | 0 mm | - | 333 W/m² | - |
| 1777735549 | 30° C | 70% | 1010.7 hPa | 0 mm | - | 585 W/m² | - |
| 1777735246 | 30° C | 72% | 1011 hPa | 0 mm | - | 848 W/m² | - |
| 1777734943 | 30° C | 71% | 1011.1 hPa | 0 mm | - | 791 W/m² | - |
* Rain latest hour (hover to see other rain measurements)
** Current wind speed in m/s (hover to see current wind gust speed)